PWSweather.com
Personal Weather Stations
Station Observations
SBERGENWX
Wood Ridge, NJ 07075

Wood Ridge, NJ 07075

Lat: 40.851667, Lon: -74.088131

Elevation: 177

Station Type: Davis Vantage Vue

http://201weather.com/

High Low Average
Temperature 85.4°F29.7°C 72.9°F22.7°C 78.6°F25.9°C
Dew Point 67.7°F19.8°C 57.5°F14.2°C 64.1°F17.8°C
Winds 8.1 mph 13.0 kmh Calm Calm 2.0 mph E3.2 kmh E
Wind Gusts 12.7 mph20.4 kmh -- 4.0 mph6.4 kmh
Humidity 79% 40% 62%
Pressure 30.06 in1017.9 mb 29.84 in1010.5 mb -
Precipitation 0.01 in0.3 mm - -
Hour Temp Dew Point Humidity Winds Wind Gusts Pressure Precip Precip Rate Daily Precip Total
12:00 AM 80.4°F26.9°C 65.7°F18.7°C 61% 2.3 mph NNE3.7 kmh NNE 4.6 mph7.4 kmh 29.85 in1010.8 mb - 0.00 in0.0 mm 0.00 in0.0 mm
12:15 AM 79.9°F26.6°C 65.7°F18.7°C 62% 1.2 mph NNE1.9 kmh NNE 1.2 mph1.9 kmh 29.85 in1010.8 mb - 0.00 in0.0 mm 0.00 in0.0 mm
12:30 AM 79.6°F26.4°C 65.9°F18.8°C 63% 1.2 mph N1.9 kmh N 1.2 mph1.9 kmh 29.85 in1010.8 mb - 0.00 in0.0 mm 0.00 in0.0 mm
12:45 AM 79.4°F26.3°C 66.2°F19.0°C 64% 1.2 mph N1.9 kmh N 2.3 mph3.7 kmh 29.85 in1010.8 mb - 0.00 in0.0 mm 0.00 in0.0 mm
01:00 AM 79.4°F26.3°C 66.2°F19.0°C 64% Calm Calm 1.2 mph1.9 kmh 29.85 in1010.8 mb - 0.00 in0.0 mm 0.00 in0.0 mm
01:15 AM 79.1°F26.2°C 66.3°F19.1°C 65% Calm Calm 1.2 mph1.9 kmh 29.86 in1011.2 mb - 0.00 in0.0 mm 0.00 in0.0 mm
01:30 AM 78.8°F26.0°C 66.5°F19.2°C 66% Calm Calm 1.2 mph1.9 kmh 29.85 in1010.8 mb - 0.00 in0.0 mm 0.00 in0.0 mm
01:45 AM 78.4°F25.8°C 66.5°F19.2°C 67% Calm Calm -- 29.85 in1010.8 mb - 0.00 in0.0 mm 0.00 in0.0 mm
02:00 AM 77.9°F25.5°C 66.5°F19.2°C 68% Calm Calm -- 29.85 in1010.8 mb - 0.00 in0.0 mm 0.00 in0.0 mm
02:15 AM 77.3°F25.2°C 66.7°F19.3°C 70% Calm Calm -- 29.85 in1010.8 mb - 0.00 in0.0 mm 0.00 in0.0 mm
02:30 AM 77.2°F25.1°C 66.2°F19.0°C 69% Calm Calm -- 29.85 in1010.8 mb - 0.00 in0.0 mm 0.00 in0.0 mm
02:45 AM 77.2°F25.1°C 65.8°F18.8°C 68% Calm Calm 1.2 mph1.9 kmh 29.85 in1010.8 mb - 0.00 in0.0 mm 0.00 in0.0 mm
03:00 AM 77.2°F25.1°C 65.8°F18.8°C 68% Calm Calm -- 29.84 in1010.5 mb - 0.00 in0.0 mm 0.00 in0.0 mm
03:15 AM 76.8°F24.9°C 65.4°F18.6°C 68% 1.2 mph NE1.9 kmh NE 3.5 mph5.6 kmh 29.84 in1010.5 mb - 0.00 in0.0 mm 0.00 in0.0 mm
03:30 AM 76.7°F24.8°C 65.3°F18.5°C 68% Calm Calm 1.2 mph1.9 kmh 29.85 in1010.8 mb - 0.00 in0.0 mm 0.00 in0.0 mm
03:45 AM 76.6°F24.8°C 64.8°F18.2°C 67% Calm Calm 3.5 mph5.6 kmh 29.85 in1010.8 mb - 0.00 in0.0 mm 0.00 in0.0 mm
04:00 AM 76.6°F24.8°C 64.4°F18.0°C 66% Calm Calm -- 29.85 in1010.8 mb - 0.00 in0.0 mm 0.00 in0.0 mm
04:15 AM 76.4°F24.7°C 64.2°F17.9°C 66% Calm Calm 1.2 mph1.9 kmh 29.85 in1010.8 mb - 0.00 in0.0 mm 0.00 in0.0 mm
04:30 AM 75.9°F24.4°C 64.2°F17.9°C 67% Calm Calm -- 29.86 in1011.2 mb - 0.00 in0.0 mm 0.00 in0.0 mm
04:45 AM 75.3°F24.1°C 64.0°F17.8°C 68% Calm Calm -- 29.86 in1011.2 mb - 0.00 in0.0 mm 0.00 in0.0 mm
05:00 AM 74.5°F23.6°C 63.7°F17.6°C 69% Calm Calm 1.2 mph1.9 kmh 29.86 in1011.2 mb - 0.00 in0.0 mm 0.00 in0.0 mm
05:15 AM 74.0°F23.3°C 63.2°F17.3°C 69% 1.2 mph NNE1.9 kmh NNE 1.2 mph1.9 kmh 29.87 in1011.5 mb - 0.00 in0.0 mm 0.00 in0.0 mm
05:30 AM 73.6°F23.1°C 63.2°F17.3°C 70% Calm Calm 1.2 mph1.9 kmh 29.87 in1011.5 mb - 0.00 in0.0 mm 0.00 in0.0 mm
05:45 AM 73.3°F22.9°C 62.5°F16.9°C 69% 2.3 mph N3.7 kmh N 3.5 mph5.6 kmh 29.88 in1011.9 mb - 0.00 in0.0 mm 0.00 in0.0 mm
06:00 AM 73.2°F22.9°C 62.4°F16.9°C 69% 1.2 mph NE1.9 kmh NE 3.5 mph5.6 kmh 29.88 in1011.9 mb - 0.00 in0.0 mm 0.00 in0.0 mm
06:15 AM 73.3°F22.9°C 62.1°F16.7°C 68% Calm Calm 2.3 mph3.7 kmh 29.88 in1011.9 mb - 0.00 in0.0 mm 0.00 in0.0 mm
06:30 AM 73.3°F22.9°C 62.1°F16.7°C 68% 1.2 mph NNE1.9 kmh NNE 4.6 mph7.4 kmh 29.89 in1012.2 mb - 0.00 in0.0 mm 0.00 in0.0 mm
06:45 AM 73.4°F23.0°C 62.2°F16.8°C 68% 1.2 mph NNE1.9 kmh NNE 3.5 mph5.6 kmh 29.90 in1012.5 mb - 0.00 in0.0 mm 0.00 in0.0 mm
07:00 AM 73.6°F23.1°C 62.4°F16.9°C 68% 2.3 mph NNE3.7 kmh NNE 4.6 mph7.4 kmh 29.90 in1012.5 mb - 0.00 in0.0 mm 0.00 in0.0 mm
07:15 AM 74.0°F23.3°C 62.3°F16.8°C 67% 2.3 mph NNE3.7 kmh NNE 2.3 mph3.7 kmh 29.90 in1012.5 mb - 0.00 in0.0 mm 0.00 in0.0 mm
07:30 AM 74.2°F23.4°C 62.1°F16.7°C 66% 4.6 mph NNE7.4 kmh NNE 5.8 mph9.3 kmh 29.91 in1012.9 mb - 0.00 in0.0 mm 0.00 in0.0 mm
07:45 AM 74.4°F23.6°C 63.1°F17.3°C 68% 4.6 mph N7.4 kmh N 6.9 mph11.1 kmh 29.92 in1013.2 mb - 0.00 in0.0 mm 0.00 in0.0 mm
08:00 AM 74.9°F23.8°C 63.6°F17.6°C 68% 4.6 mph NE7.4 kmh NE 9.2 mph14.8 kmh 29.92 in1013.2 mb - 0.00 in0.0 mm 0.00 in0.0 mm
08:15 AM 75.8°F24.3°C 64.5°F18.1°C 68% 2.3 mph N3.7 kmh N 8.1 mph13.0 kmh 29.92 in1013.2 mb - 0.00 in0.0 mm 0.00 in0.0 mm
08:30 AM 76.4°F24.7°C 64.6°F18.1°C 67% 5.8 mph NNE9.3 kmh NNE 10.4 mph16.7 kmh 29.92 in1013.2 mb - 0.00 in0.0 mm 0.00 in0.0 mm
08:45 AM 76.9°F24.9°C 64.7°F18.2°C 66% 2.3 mph NNE3.7 kmh NNE 5.8 mph9.3 kmh 29.92 in1013.2 mb - 0.00 in0.0 mm 0.00 in0.0 mm
09:00 AM 77.1°F25.1°C 64.0°F17.8°C 64% 2.3 mph NE3.7 kmh NE 6.9 mph11.1 kmh 29.92 in1013.2 mb - 0.00 in0.0 mm 0.00 in0.0 mm
09:15 AM 77.7°F25.4°C 63.6°F17.6°C 62% 4.6 mph NE7.4 kmh NE 4.6 mph7.4 kmh 29.92 in1013.2 mb - 0.00 in0.0 mm 0.00 in0.0 mm
09:30 AM 78.5°F25.8°C 64.4°F18.0°C 62% 2.3 mph NNE3.7 kmh NNE 5.8 mph9.3 kmh 29.92 in1013.2 mb - 0.00 in0.0 mm 0.00 in0.0 mm
09:45 AM 78.6°F25.9°C 63.6°F17.6°C 60% 5.8 mph NNE9.3 kmh NNE 9.2 mph14.8 kmh 29.92 in1013.2 mb - 0.00 in0.0 mm 0.00 in0.0 mm
10:00 AM 78.9°F26.1°C 63.8°F17.7°C 60% 5.8 mph NNE9.3 kmh NNE 8.1 mph13.0 kmh 29.93 in1013.5 mb - 0.00 in0.0 mm 0.00 in0.0 mm
10:15 AM 79.3°F26.3°C 64.6°F18.1°C 61% 1.2 mph NNE1.9 kmh NNE 3.5 mph5.6 kmh 29.93 in1013.5 mb - 0.00 in0.0 mm 0.00 in0.0 mm
10:30 AM 79.8°F26.6°C 64.2°F17.9°C 59% 5.8 mph NE9.3 kmh NE 9.2 mph14.8 kmh 29.93 in1013.5 mb - 0.00 in0.0 mm 0.00 in0.0 mm
10:45 AM 79.6°F26.4°C 64.5°F18.1°C 60% 5.8 mph NNE9.3 kmh NNE 10.4 mph16.7 kmh 29.93 in1013.5 mb - 0.00 in0.0 mm 0.00 in0.0 mm
11:00 AM 79.6°F26.4°C 64.5°F18.1°C 60% 3.5 mph NNE5.6 kmh NNE 8.1 mph13.0 kmh 29.93 in1013.5 mb - 0.00 in0.0 mm 0.00 in0.0 mm
11:15 AM 80.2°F26.8°C 64.6°F18.1°C 59% 4.6 mph NE7.4 kmh NE 8.1 mph13.0 kmh 29.93 in1013.5 mb - 0.00 in0.0 mm 0.00 in0.0 mm
11:30 AM 80.7°F27.1°C 64.5°F18.1°C 58% 2.3 mph NE3.7 kmh NE 2.3 mph3.7 kmh 29.93 in1013.5 mb - 0.00 in0.0 mm 0.00 in0.0 mm
11:45 AM 81.4°F27.4°C 65.2°F18.4°C 58% 4.6 mph NNE7.4 kmh NNE 5.8 mph9.3 kmh 29.93 in1013.5 mb - 0.00 in0.0 mm 0.00 in0.0 mm
12:00 PM 81.7°F27.6°C 66.0°F18.9°C 59% 2.3 mph ENE3.7 kmh ENE 4.6 mph7.4 kmh 29.93 in1013.5 mb - 0.00 in0.0 mm 0.00 in0.0 mm
12:15 PM 81.5°F27.5°C 65.8°F18.8°C 59% 2.3 mph ENE3.7 kmh ENE 2.3 mph3.7 kmh 29.93 in1013.5 mb - 0.00 in0.0 mm 0.00 in0.0 mm
12:30 PM 81.7°F27.6°C 65.0°F18.3°C 57% 4.6 mph N7.4 kmh N 6.9 mph11.1 kmh 29.93 in1013.5 mb - 0.00 in0.0 mm 0.00 in0.0 mm
12:45 PM 82.6°F28.1°C 65.3°F18.5°C 56% 4.6 mph NNE7.4 kmh NNE 8.1 mph13.0 kmh 29.93 in1013.5 mb - 0.00 in0.0 mm 0.00 in0.0 mm
01:00 PM 82.4°F28.0°C 65.1°F18.4°C 56% 4.6 mph NE7.4 kmh NE 6.9 mph11.1 kmh 29.93 in1013.5 mb - 0.00 in0.0 mm 0.00 in0.0 mm
01:15 PM 82.8°F28.2°C 65.0°F18.3°C 55% 8.1 mph NNE13.0 kmh NNE 12.7 mph20.4 kmh 29.93 in1013.5 mb - 0.00 in0.0 mm 0.00 in0.0 mm
01:30 PM 83.2°F28.4°C 64.9°F18.3°C 54% 2.3 mph NE3.7 kmh NE 6.9 mph11.1 kmh 29.93 in1013.5 mb - 0.01 in0.3 mm 0.01 in0.3 mm
01:45 PM 83.2°F28.4°C 63.8°F17.7°C 52% 6.9 mph NNE11.1 kmh NNE 8.1 mph13.0 kmh 29.92 in1013.2 mb - 0.01 in0.3 mm 0.01 in0.3 mm
02:00 PM 82.9°F28.3°C 63.4°F17.4°C 52% 5.8 mph NE9.3 kmh NE 5.8 mph9.3 kmh 29.93 in1013.5 mb - 0.01 in0.3 mm 0.01 in0.3 mm
02:15 PM 83.8°F28.8°C 64.3°F17.9°C 52% 4.6 mph NNE7.4 kmh NNE 5.8 mph9.3 kmh 29.93 in1013.5 mb - 0.01 in0.3 mm 0.01 in0.3 mm
02:30 PM 84.0°F28.9°C 63.4°F17.4°C 50% 4.6 mph NE7.4 kmh NE 10.4 mph16.7 kmh 29.92 in1013.2 mb - 0.00 in0.0 mm 0.01 in0.3 mm
02:45 PM 84.3°F29.1°C 63.0°F17.2°C 49% 4.6 mph NE7.4 kmh NE 9.2 mph14.8 kmh 29.92 in1013.2 mb - 0.00 in0.0 mm 0.01 in0.3 mm
03:00 PM 84.0°F28.9°C 62.8°F17.1°C 49% 2.3 mph NE3.7 kmh NE 3.5 mph5.6 kmh 29.92 in1013.2 mb - 0.00 in0.0 mm 0.01 in0.3 mm
03:15 PM 84.7°F29.3°C 62.9°F17.2°C 48% 3.5 mph NE5.6 kmh NE 9.2 mph14.8 kmh 29.92 in1013.2 mb - 0.00 in0.0 mm 0.01 in0.3 mm
03:30 PM 84.8°F29.3°C 62.9°F17.2°C 48% 6.9 mph NNE11.1 kmh NNE 11.5 mph18.5 kmh 29.92 in1013.2 mb - 0.00 in0.0 mm 0.01 in0.3 mm
03:45 PM 84.4°F29.1°C 63.1°F17.3°C 49% 1.2 mph NNE1.9 kmh NNE 2.3 mph3.7 kmh 29.92 in1013.2 mb - 0.00 in0.0 mm 0.01 in0.3 mm
04:00 PM 85.1°F29.5°C 62.6°F17.0°C 47% 4.6 mph ENE7.4 kmh ENE 3.5 mph5.6 kmh 29.92 in1013.2 mb - 0.00 in0.0 mm 0.01 in0.3 mm
04:15 PM 84.2°F29.0°C 62.4°F16.9°C 48% Calm Calm 2.3 mph3.7 kmh 29.93 in1013.5 mb - 0.00 in0.0 mm 0.01 in0.3 mm
04:30 PM 84.2°F29.0°C 62.4°F16.9°C 48% 1.2 mph NE1.9 kmh NE 5.8 mph9.3 kmh 29.93 in1013.5 mb - 0.00 in0.0 mm 0.01 in0.3 mm
04:45 PM 84.2°F29.0°C 61.2°F16.2°C 46% 2.3 mph N3.7 kmh N 4.6 mph7.4 kmh 29.93 in1013.5 mb - 0.00 in0.0 mm 0.01 in0.3 mm
05:00 PM 84.7°F29.3°C 62.2°F16.8°C 47% 1.2 mph NE1.9 kmh NE 4.6 mph7.4 kmh 29.93 in1013.5 mb - 0.00 in0.0 mm 0.01 in0.3 mm
05:15 PM 85.2°F29.6°C 61.4°F16.3°C 45% 4.6 mph NNE7.4 kmh NNE 10.4 mph16.7 kmh 29.93 in1013.5 mb - 0.00 in0.0 mm 0.01 in0.3 mm
05:30 PM 85.4°F29.7°C 60.4°F15.8°C 43% 3.5 mph NNE5.6 kmh NNE 6.9 mph11.1 kmh 29.93 in1013.5 mb - 0.00 in0.0 mm 0.01 in0.3 mm
05:45 PM 84.5°F29.2°C 57.5°F14.2°C 40% 4.6 mph N7.4 kmh N 6.9 mph11.1 kmh 29.94 in1013.9 mb - 0.00 in0.0 mm 0.01 in0.3 mm
06:00 PM 84.1°F28.9°C 58.5°F14.7°C 42% 2.3 mph NNE3.7 kmh NNE 3.5 mph5.6 kmh 29.94 in1013.9 mb - 0.00 in0.0 mm 0.01 in0.3 mm
06:15 PM 84.2°F29.0°C 59.3°F15.2°C 43% 2.3 mph N3.7 kmh N 3.5 mph5.6 kmh 29.93 in1013.5 mb - 0.00 in0.0 mm 0.01 in0.3 mm
06:30 PM 83.8°F28.8°C 58.9°F14.9°C 43% 1.2 mph N1.9 kmh N 1.2 mph1.9 kmh 29.94 in1013.9 mb - 0.00 in0.0 mm 0.01 in0.3 mm
06:45 PM 83.6°F28.7°C 59.4°F15.2°C 44% 1.2 mph NNE1.9 kmh NNE 3.5 mph5.6 kmh 29.94 in1013.9 mb - 0.00 in0.0 mm 0.01 in0.3 mm
07:00 PM 83.6°F28.7°C 59.4°F15.2°C 44% Calm Calm 3.5 mph5.6 kmh 29.94 in1013.9 mb - 0.00 in0.0 mm 0.01 in0.3 mm
07:15 PM 83.5°F28.6°C 59.3°F15.2°C 44% 1.2 mph NE1.9 kmh NE 4.6 mph7.4 kmh 29.95 in1014.2 mb - 0.00 in0.0 mm 0.01 in0.3 mm
07:30 PM 83.3°F28.5°C 59.7°F15.4°C 45% 1.2 mph SE1.9 kmh SE 3.5 mph5.6 kmh 29.95 in1014.2 mb - 0.00 in0.0 mm 0.01 in0.3 mm
07:45 PM 79.8°F26.6°C 67.5°F19.7°C 66% 2.3 mph SSW3.7 kmh SSW 5.8 mph9.3 kmh 29.96 in1014.6 mb - 0.00 in0.0 mm 0.01 in0.3 mm
08:00 PM 78.7°F25.9°C 67.7°F19.8°C 69% 1.2 mph SSW1.9 kmh SSW 2.3 mph3.7 kmh 29.96 in1014.6 mb - 0.00 in0.0 mm 0.01 in0.3 mm
08:15 PM 77.4°F25.2°C 67.3°F19.6°C 71% 3.5 mph SSW5.6 kmh SSW 3.5 mph5.6 kmh 29.97 in1014.9 mb - 0.00 in0.0 mm 0.01 in0.3 mm
08:30 PM 76.9°F24.9°C 66.8°F19.3°C 71% Calm Calm 1.2 mph1.9 kmh 29.98 in1015.2 mb - 0.00 in0.0 mm 0.01 in0.3 mm
08:45 PM 76.8°F24.9°C 67.1°F19.5°C 72% 1.2 mph SSW1.9 kmh SSW 3.5 mph5.6 kmh 29.99 in1015.6 mb - 0.00 in0.0 mm 0.01 in0.3 mm
09:00 PM 76.2°F24.6°C 66.9°F19.4°C 73% 2.3 mph SW3.7 kmh SW 3.5 mph5.6 kmh 29.99 in1015.6 mb - 0.00 in0.0 mm 0.01 in0.3 mm
09:15 PM 75.7°F24.3°C 66.4°F19.1°C 73% 1.2 mph SW1.9 kmh SW 1.2 mph1.9 kmh 30.00 in1015.9 mb - 0.00 in0.0 mm 0.01 in0.3 mm
09:30 PM 75.1°F23.9°C 66.6°F19.2°C 75% 3.5 mph SW5.6 kmh SW 6.9 mph11.1 kmh 30.01 in1016.3 mb - 0.00 in0.0 mm 0.01 in0.3 mm
09:45 PM 74.5°F23.6°C 66.4°F19.1°C 76% 4.6 mph SW7.4 kmh SW 4.6 mph7.4 kmh 30.02 in1016.6 mb - 0.00 in0.0 mm 0.01 in0.3 mm
10:00 PM 74.1°F23.4°C 66.4°F19.1°C 77% 1.2 mph SW1.9 kmh SW 3.5 mph5.6 kmh 30.02 in1016.6 mb - 0.00 in0.0 mm 0.01 in0.3 mm
10:15 PM 73.9°F23.3°C 66.2°F19.0°C 77% 2.3 mph SW3.7 kmh SW 3.5 mph5.6 kmh 30.03 in1016.9 mb - 0.00 in0.0 mm 0.01 in0.3 mm
10:30 PM 74.2°F23.4°C 66.1°F18.9°C 76% 1.2 mph WSW1.9 kmh WSW 2.3 mph3.7 kmh 30.04 in1017.3 mb - 0.00 in0.0 mm 0.01 in0.3 mm
10:45 PM 74.2°F23.4°C 66.1°F18.9°C 76% Calm Calm 2.3 mph3.7 kmh 30.04 in1017.3 mb - 0.00 in0.0 mm 0.01 in0.3 mm
11:00 PM 74.1°F23.4°C 66.0°F18.9°C 76% Calm Calm 1.2 mph1.9 kmh 30.05 in1017.6 mb - 0.00 in0.0 mm 0.01 in0.3 mm
11:15 PM 73.9°F23.3°C 65.9°F18.8°C 76% Calm Calm 3.5 mph5.6 kmh 30.05 in1017.6 mb - 0.00 in0.0 mm 0.01 in0.3 mm
11:30 PM 73.6°F23.1°C 65.9°F18.8°C 77% 1.2 mph SSW1.9 kmh SSW 2.3 mph3.7 kmh 30.05 in1017.6 mb - 0.00 in0.0 mm 0.01 in0.3 mm
11:45 PM 73.5°F23.1°C 66.2°F19.0°C 78% 1.2 mph SW1.9 kmh SW 3.5 mph5.6 kmh 30.05 in1017.6 mb - 0.00 in0.0 mm 0.01 in0.3 mm